Search for airport 
image banner adimage banner adimage banner ad
image banner ad

C80 - New Coalinga Muni

Located in Coalinga, United States

ICAO - C80, IATA -

Data provided by Airmate  

General information

Coordinates: N36°9'44" W120°17'41"
Elevation is 625 feet MSL.
Magnetic variation is 15° East
View others Airports in California

Operational data

Special qualification required
Current time UTC:
Current local time:
Weather at : KNLC - Lemoore Nas (Reeves Fld) ( 36 km )
METAR: KNLC 210156Z 01006KT 5SM HZ FU SCT010 27/10 A2993 RMK AO2 SLP135 RH/33 T02670100
TAF: TAF KNLC 2023/2123 36009KT 8000 HZ FU SCT010 QNH2988INS TEMPO 2100/2106 32008KT 4800 HZ FU BKN010 FM210600 VRB06KT 8000 HZ FU SCT010 QNH2987INS T13/2114Z T38/2123Z FS30012
View NOTAMs / SUP AIP / TFR affecting this airport [VIEW]
Communications frequencies: [VIEW]

Runways:

RWY identifierQFULength (ft)Width (ft)SurfaceLDA (ft)
0112°247160OTHER
19191°247160OTHER
12130°5000100ASPH
30310°5000100ASPH

Airport contact information

Address: Coalinga United States

Satellite view of C80